KBTP/BTP METAR and TAF weather

Enter ICAO airport designator
Station Type Date Time Source
KBTP METAR 2019/04/18 19:56 UTC NOAA

KBTP 181956Z AUTO 20013G19KT 10SM CLR 24/11 A2973 RMK AO2 SLP067 T02390106


Station Type Date Time Source
KBTP Decoded METAR 2019/04/18 19:56 UTC NOAA

Butler, Butler County Airport/K W Scholter Field, PA, United States (KBTP) 40-47N 079-57W
Apr 18, 2019 - 03:56 PM EDT / 2019.04.18 1956 UTC
Wind: from the SSW (200 degrees) at 15 MPH (13 KT) gusting to 22 MPH (19 KT):0
Visibility: 10 mile(s):0
Sky conditions: clear
Temperature: 75.0 F (23.9 C)
Dew Point: 51.1 F (10.6 C)
Relative Humidity: 43%
Pressure (altimeter): 29.73 in. Hg (1006 hPa)
ob: KBTP 181956Z AUTO 20013G19KT 10SM CLR 24/11 A2973 RMK AO2 SLP067 T02390106
cycle: 20

Station Type Date Time Source
KBTP TAF UTC NOAA

Error!

Example: see airport list